Time;durP1;ratioP1;P1;durP2;ratioP2;P2;SDS_P1;SDS_P2;PMS_P1;PMS_P2;Temp;Humidity;BMP_temperature;BMP_pressure;BME280_temperature;BME280_humidity;BME280_pressure;Samples;Min_cycle;Max_cycle;Signal;HPM_P1;HPM_P2
2021/12/13 00:01:34;;;;;;;15.60;9.68;;;;;;;;;;5063914;28;20078;-51
2021/12/13 00:04:03;;;;;;;15.20;9.10;;;;;;;;;;5062800;28;21167;-53
2021/12/13 00:06:31;;;;;;;13.38;8.65;;;;;;;;;;5063409;28;20213;-50
2021/12/13 00:09:01;;;;;;;13.10;7.57;;;;;;;;;;5064213;28;20032;-52
2021/12/13 00:11:29;;;;;;;14.80;9.23;;;;;;;;;;5063873;28;20395;-52
2021/12/13 00:13:58;;;;;;;17.23;10.93;;;;;;;;;;5062499;28;20051;-52
2021/12/13 00:16:26;;;;;;;16.20;10.20;;;;;;;;;;5062783;28;20029;-51
2021/12/13 00:18:55;;;;;;;16.60;10.52;;;;;;;;;;5062850;28;20047;-49
2021/12/13 00:21:24;;;;;;;14.95;9.95;;;;;;;;;;5062274;28;20032;-50
2021/12/13 00:23:55;;;;;;;13.98;8.85;;;;;;;;;;5062660;28;20028;-49
2021/12/13 00:26:23;;;;;;;20.85;12.90;;;;;;;;;;5063360;28;20430;-51
2021/12/13 00:28:49;;;;;;;21.45;12.63;;;;;;;;;;5045624;28;20044;-52
2021/12/13 00:31:23;;;;;;;19.23;11.45;;;;;;;;;;5063341;28;20503;-49
2021/12/13 00:33:52;;;;;;;19.17;11.27;;;;;;;;;;5062638;28;20635;-51
2021/12/13 00:36:26;;;;;;;17.80;10.40;;;;;;;;;;5044049;28;20028;-52
2021/12/13 00:38:55;;;;;;;16.05;10.25;;;;;;;;;;5063232;28;20036;-50
2021/12/13 00:41:25;;;;;;;15.90;9.93;;;;;;;;;;5062850;28;20522;-52
2021/12/13 00:44:10;;;;;;;15.32;9.57;;;;;;;;;;5044975;28;20109;-51
2021/12/13 00:46:39;;;;;;;15.40;9.63;;;;;;;;;;5062436;28;20020;-51
2021/12/13 00:49:07;;;;;;;14.80;9.65;;;;;;;;;;5061883;28;20036;-52
2021/12/13 00:51:35;;;;;;;14.98;9.75;;;;;;;;;;5062162;28;20025;-52
2021/12/13 00:54:04;;;;;;;15.48;9.68;;;;;;;;;;5062660;28;20037;-51
2021/12/13 00:56:42;;;;;;;14.02;9.32;;;;;;;;;;5066045;28;20346;-49
2021/12/13 00:59:10;;;;;;;17.55;10.65;;;;;;;;;;5048657;28;20025;-52
2021/12/13 01:01:36;;;;;;;15.18;9.68;;;;;;;;;;5066782;28;20074;-49
2021/12/13 01:04:05;;;;;;;15.93;10.48;;;;;;;;;;5066588;28;20017;-50
2021/12/13 01:06:51;;;;;;;15.70;10.00;;;;;;;;;;5065351;28;20036;-53
2021/12/13 01:09:23;;;;;;;16.08;10.18;;;;;;;;;;5066393;28;20099;-51
2021/12/13 01:11:55;;;;;;;17.48;8.98;;;;;;;;;;5066194;28;20048;-49
2021/12/13 01:14:21;;;;;;;13.18;9.23;;;;;;;;;;5064836;28;20698;-51
2021/12/13 01:16:57;;;;;;;14.57;9.45;;;;;;;;;;5064970;28;20032;-50
2021/12/13 01:19:29;;;;;;;13.55;8.95;;;;;;;;;;5062146;28;20364;-51
2021/12/13 01:22:48;;;;;;;12.70;8.30;;;;;;;;;;5047956;28;20025;-49
2021/12/13 01:25:19;;;;;;;14.30;9.20;;;;;;;;;;5042994;28;20037;-48
2021/12/13 01:27:49;;;;;;;14.43;9.25;;;;;;;;;;5028434;28;20029;-50
2021/12/13 01:30:18;;;;;;;14.80;9.93;;;;;;;;;;5046075;28;20033;-49
2021/12/13 01:32:46;;;;;;;13.63;8.80;;;;;;;;;;5046242;28;20021;-48
2021/12/13 01:35:14;;;;;;;12.35;8.65;;;;;;;;;;5075488;28;20032;-48
2021/12/13 01:37:41;;;;;;;12.13;8.35;;;;;;;;;;5086482;28;20024;-49
2021/12/13 01:40:10;;;;;;;12.40;8.75;;;;;;;;;;5081746;28;20355;-49
2021/12/13 01:42:36;;;;;;;15.00;9.48;;;;;;;;;;5065843;28;20720;-51
2021/12/13 01:45:06;;;;;;;13.23;9.15;;;;;;;;;;5064111;28;20076;-53
2021/12/13 01:47:38;;;;;;;17.60;10.65;;;;;;;;;;5065213;28;20016;-51
2021/12/13 01:50:21;;;;;;;18.30;11.35;;;;;;;;;;5067330;28;20086;-52
2021/12/13 01:52:50;;;;;;;23.97;14.80;;;;;;;;;;5067244;28;20082;-52
2021/12/13 01:55:23;;;;;;;25.17;15.15;;;;;;;;;;5067187;28;20036;-53
2021/12/13 01:57:55;;;;;;;24.63;14.23;;;;;;;;;;5066569;28;20032;-51
2021/12/13 02:01:08;;;;;;;23.75;14.10;;;;;;;;;;5066995;28;20040;-50
2021/12/13 02:03:21;;;;;;;21.15;12.45;;;;;;;;;;5066819;28;20028;-50
2021/12/13 02:05:48;;;;;;;17.42;10.52;;;;;;;;;;5063937;28;20039;-52
2021/12/13 02:08:20;;;;;;;15.73;9.68;;;;;;;;;;5044711;28;20455;-50
2021/12/13 02:10:48;;;;;;;15.25;9.13;;;;;;;;;;5047114;28;20091;-52
2021/12/13 02:13:23;;;;;;;15.40;10.18;;;;;;;;;;5046890;28;20017;-52
2021/12/13 02:18:47;;;;;;;20.48;13.32;;;;;;;;;;5067122;28;20043;-53
2021/12/13 02:21:23;;;;;;;18.90;11.48;;;;;;;;;;5066955;28;20051;-53
2021/12/13 02:23:51;;;;;;;16.65;10.57;;;;;;;;;;5065755;28;20017;-53
2021/12/13 02:26:18;;;;;;;15.48;9.98;;;;;;;;;;5067138;28;20082;-52
2021/12/13 02:28:45;;;;;;;13.75;8.77;;;;;;;;;;5066427;28;20570;-50
2021/12/13 02:31:32;;;;;;;11.73;7.40;;;;;;;;;;5067074;28;20043;-52
2021/12/13 02:34:04;;;;;;;11.05;7.30;;;;;;;;;;5066427;28;20013;-51
2021/12/13 02:36:32;;;;;;;11.60;7.50;;;;;;;;;;5049065;28;20024;-53
2021/12/13 02:39:00;;;;;;;11.57;7.22;;;;;;;;;;5065418;28;20044;-49
2021/12/13 02:41:29;;;;;;;10.07;6.55;;;;;;;;;;5066984;28;20041;-53
2021/12/13 02:44:02;;;;;;;10.18;6.78;;;;;;;;;;5064788;28;20126;-52
2021/12/13 02:46:28;;;;;;;10.30;6.80;;;;;;;;;;5065948;28;20492;-52
2021/12/13 02:48:56;;;;;;;15.23;9.23;;;;;;;;;;5066573;28;20027;-53
2021/12/13 02:51:25;;;;;;;14.60;9.40;;;;;;;;;;5066533;28;20033;-53
2021/12/13 02:53:53;;;;;;;15.32;9.25;;;;;;;;;;5066155;28;20024;-53
2021/12/13 02:56:23;;;;;;;17.35;10.65;;;;;;;;;;5065100;28;20617;-53
2021/12/13 02:58:50;;;;;;;14.48;9.32;;;;;;;;;;5049166;28;20024;-53
2021/12/13 03:01:25;;;;;;;15.70;9.75;;;;;;;;;;5066494;28;20126;-53
2021/12/13 03:03:55;;;;;;;13.25;9.15;;;;;;;;;;5064268;28;20035;-53
2021/12/13 03:06:24;;;;;;;12.95;8.63;;;;;;;;;;5066412;28;20039;-51
2021/12/13 03:08:53;;;;;;;11.82;7.85;;;;;;;;;;5067093;28;20020;-53
2021/12/13 03:11:28;;;;;;;13.60;8.50;;;;;;;;;;5066491;28;20024;-52
2021/12/13 03:13:58;;;;;;;15.48;9.38;;;;;;;;;;5065537;28;20036;-52
2021/12/13 03:16:28;;;;;;;14.98;8.82;;;;;;;;;;5065925;28;20071;-52
2021/12/13 03:18:57;;;;;;;12.35;8.32;;;;;;;;;;5065971;28;20070;-53
2021/12/13 03:21:46;;;;;;;12.20;7.60;;;;;;;;;;5065342;28;20025;-53
2021/12/13 03:24:19;;;;;;;11.77;8.05;;;;;;;;;;5065601;28;20025;-50
2021/12/13 03:26:58;;;;;;;12.27;7.18;;;;;;;;;;5066668;28;20020;-52
2021/12/13 03:29:27;;;;;;;11.18;7.45;;;;;;;;;;5066220;28;20479;-52
2021/12/13 03:31:55;;;;;;;11.10;7.43;;;;;;;;;;5048378;28;20021;-52
2021/12/13 03:34:22;;;;;;;10.25;6.80;;;;;;;;;;5064422;28;20389;-53
2021/12/13 03:37:08;;;;;;;10.55;6.53;;;;;;;;;;5066381;28;20037;-52
2021/12/13 03:39:39;;;;;;;9.82;7.07;;;;;;;;;;5065494;28;20468;-53
2021/12/13 03:42:07;;;;;;;9.93;6.95;;;;;;;;;;5064055;28;20514;-53
2021/12/13 03:44:36;;;;;;;11.10;7.07;;;;;;;;;;5065583;28;20024;-52
2021/12/13 03:47:12;;;;;;;10.50;6.78;;;;;;;;;;5066288;28;20016;-55
2021/12/13 03:49:42;;;;;;;8.63;5.90;;;;;;;;;;5066537;28;20080;-53
2021/12/13 03:52:09;;;;;;;10.07;7.18;;;;;;;;;;5063362;28;20029;-53
2021/12/13 03:54:37;;;;;;;10.60;7.10;;;;;;;;;;5066474;28;20033;-53
2021/12/13 03:57:03;;;;;;;8.95;6.68;;;;;;;;;;5066370;28;20048;-53
2021/12/13 03:59:34;;;;;;;10.90;7.20;;;;;;;;;;5066750;28;20063;-52
2021/12/13 04:02:03;;;;;;;11.75;7.93;;;;;;;;;;5065664;28;20020;-50
2021/12/13 04:04:32;;;;;;;10.77;7.32;;;;;;;;;;5066151;28;20040;-53
2021/12/13 04:07:02;;;;;;;12.40;7.55;;;;;;;;;;5066670;28;20021;-52
2021/12/13 04:09:30;;;;;;;12.32;7.57;;;;;;;;;;5066257;28;20020;-49
2021/12/13 04:11:59;;;;;;;10.95;7.45;;;;;;;;;;5064358;28;20055;-50
2021/12/13 04:14:30;;;;;;;10.93;7.35;;;;;;;;;;5064870;28;20103;-50
2021/12/13 04:17:19;;;;;;;11.35;7.65;;;;;;;;;;5066249;28;20491;-51
2021/12/13 04:19:57;;;;;;;10.35;6.95;;;;;;;;;;5065982;28;20033;-49
2021/12/13 04:22:26;;;;;;;11.63;7.45;;;;;;;;;;5064770;28;20407;-50
2021/12/13 04:24:58;;;;;;;10.10;7.20;;;;;;;;;;5065757;28;20027;-52
2021/12/13 04:27:27;;;;;;;9.98;7.20;;;;;;;;;;5065656;28;20017;-53
2021/12/13 04:29:56;;;;;;;11.43;7.25;;;;;;;;;;5067137;28;20025;-51
2021/12/13 04:32:30;;;;;;;9.90;7.05;;;;;;;;;;5068216;28;20028;-52
2021/12/13 04:34:58;;;;;;;11.40;7.35;;;;;;;;;;5070125;28;20036;-53
2021/12/13 04:37:28;;;;;;;11.13;7.63;;;;;;;;;;5068420;28;20033;-53
2021/12/13 04:39:56;;;;;;;11.65;7.75;;;;;;;;;;5049581;28;20539;-52
2021/12/13 04:42:24;;;;;;;11.13;7.93;;;;;;;;;;5051883;28;20028;-51
2021/12/13 04:44:53;;;;;;;11.55;7.82;;;;;;;;;;5069691;28;20633;-52
2021/12/13 04:47:28;;;;;;;11.38;7.72;;;;;;;;;;5069146;28;20479;-52
2021/12/13 04:50:03;;;;;;;12.50;8.07;;;;;;;;;;5069405;28;20028;-50
2021/12/13 04:52:32;;;;;;;13.00;8.82;;;;;;;;;;5067867;28;20518;-52
2021/12/13 04:54:59;;;;;;;14.13;8.98;;;;;;;;;;5069961;28;20103;-49
2021/12/13 04:57:25;;;;;;;16.13;9.23;;;;;;;;;;5068936;28;20111;-49
2021/12/13 04:59:54;;;;;;;15.25;9.32;;;;;;;;;;5069266;28;20028;-50
2021/12/13 05:02:22;;;;;;;14.45;9.18;;;;;;;;;;5067866;28;20133;-53
2021/12/13 05:04:54;;;;;;;14.77;9.98;;;;;;;;;;5069014;28;20031;-49
2021/12/13 05:07:20;;;;;;;13.32;9.25;;;;;;;;;;5069013;28;20020;-53
2021/12/13 05:09:47;;;;;;;15.45;10.05;;;;;;;;;;5069307;28;20458;-49
2021/12/13 05:12:15;;;;;;;15.35;9.70;;;;;;;;;;5066664;28;20025;-50
2021/12/13 05:14:41;;;;;;;15.65;9.85;;;;;;;;;;5066130;28;20067;-50
2021/12/13 05:17:17;;;;;;;16.70;10.30;;;;;;;;;;5068596;28;20082;-50
2021/12/13 05:19:46;;;;;;;15.95;9.55;;;;;;;;;;5068955;28;20051;-51
2021/12/13 05:22:12;;;;;;;17.10;10.70;;;;;;;;;;5067937;28;20032;-49
2021/12/13 05:24:45;;;;;;;16.75;10.82;;;;;;;;;;5068272;28;20468;-49
2021/12/13 05:27:14;;;;;;;18.17;10.88;;;;;;;;;;5068417;28;20025;-49
2021/12/13 05:29:42;;;;;;;18.08;10.30;;;;;;;;;;5068926;28;20029;-52
2021/12/13 05:32:14;;;;;;;14.95;9.57;;;;;;;;;;5068443;28;20040;-51
2021/12/13 05:34:44;;;;;;;15.48;10.25;;;;;;;;;;5067523;28;20035;-49
2021/12/13 05:37:10;;;;;;;17.08;10.90;;;;;;;;;;5046773;28;20523;-49
2021/12/13 05:39:37;;;;;;;14.43;8.93;;;;;;;;;;5051117;28;20037;-52
2021/12/13 05:42:09;;;;;;;12.13;8.68;;;;;;;;;;5067043;28;20020;-52
2021/12/13 05:44:37;;;;;;;12.70;8.38;;;;;;;;;;5066925;28;20055;-53
2021/12/13 05:47:08;;;;;;;13.05;9.07;;;;;;;;;;5045696;28;20043;-51
2021/12/13 05:49:41;;;;;;;11.43;8.13;;;;;;;;;;5067192;28;20025;-50
2021/12/13 05:52:07;;;;;;;12.70;8.43;;;;;;;;;;5064678;28;20029;-52
2021/12/13 05:54:36;;;;;;;11.98;7.95;;;;;;;;;;5066799;28;20033;-52
2021/12/13 05:57:08;;;;;;;11.25;7.88;;;;;;;;;;5066620;28;20107;-53
2021/12/13 05:59:40;;;;;;;10.13;7.15;;;;;;;;;;5066014;28;20033;-52
2021/12/13 06:02:12;;;;;;;11.18;7.47;;;;;;;;;;5064883;28;20044;-52
2021/12/13 06:04:57;;;;;;;12.07;8.20;;;;;;;;;;5066448;28;20032;-51
2021/12/13 06:07:27;;;;;;;11.25;8.18;;;;;;;;;;5066142;28;20036;-49
2021/12/13 06:09:59;;;;;;;13.73;8.88;;;;;;;;;;5066496;28;20017;-49
2021/12/13 06:12:34;;;;;;;13.88;9.07;;;;;;;;;;5065504;28;20058;-48
2021/12/13 06:15:21;;;;;;;14.38;9.07;;;;;;;;;;5066261;28;20033;-51
2021/12/13 06:17:49;;;;;;;14.93;9.15;;;;;;;;;;5066015;28;20021;-52
2021/12/13 06:20:20;;;;;;;12.73;8.70;;;;;;;;;;5065910;28;20103;-52
2021/12/13 06:22:48;;;;;;;13.75;9.43;;;;;;;;;;5064926;28;20024;-52
2021/12/13 06:25:16;;;;;;;16.95;10.65;;;;;;;;;;5047678;28;20399;-51
2021/12/13 06:27:45;;;;;;;14.90;9.50;;;;;;;;;;5064835;28;20024;-52
2021/12/13 06:30:17;;;;;;;13.55;9.52;;;;;;;;;;5063663;28;20032;-53
2021/12/13 06:32:49;;;;;;;12.63;8.23;;;;;;;;;;5065806;28;20028;-52
2021/12/13 06:35:28;;;;;;;13.18;8.35;;;;;;;;;;5065535;28;20470;-52
2021/12/13 06:37:54;;;;;;;11.85;8.07;;;;;;;;;;5063467;28;20020;-52
2021/12/13 06:40:27;;;;;;;13.48;8.40;;;;;;;;;;5065703;28;20044;-50
2021/12/13 06:42:54;;;;;;;12.85;8.55;;;;;;;;;;5065759;28;20024;-51
2021/12/13 06:45:31;;;;;;;10.48;7.60;;;;;;;;;;5066573;28;20021;-52
2021/12/13 06:47:58;;;;;;;11.65;7.63;;;;;;;;;;5067587;28;20099;-53
2021/12/13 06:50:27;;;;;;;11.45;7.22;;;;;;;;;;5065041;28;20032;-52
2021/12/13 06:53:08;;;;;;;10.27;6.88;;;;;;;;;;5065816;28;20036;-53
2021/12/13 06:55:34;;;;;;;11.32;7.78;;;;;;;;;;5066446;28;20051;-53
2021/12/13 06:58:03;;;;;;;10.70;7.22;;;;;;;;;;5066511;28;20025;-54
2021/12/13 07:00:32;;;;;;;12.15;7.75;;;;;;;;;;5065751;28;20054;-52
2021/12/13 07:03:05;;;;;;;12.48;8.18;;;;;;;;;;5064656;28;20586;-53
2021/12/13 07:05:37;;;;;;;12.73;8.15;;;;;;;;;;5066102;28;20582;-52
2021/12/13 07:08:03;;;;;;;13.23;8.85;;;;;;;;;;5066646;28;20020;-52
2021/12/13 07:10:37;;;;;;;14.25;8.82;;;;;;;;;;5066150;28;20021;-53
2021/12/13 07:13:29;;;;;;;15.98;10.30;;;;;;;;;;5066153;28;20085;-52
2021/12/13 07:15:58;;;;;;;15.43;9.20;;;;;;;;;;5061816;28;20123;-51
2021/12/13 07:18:30;;;;;;;17.58;11.63;;;;;;;;;;5065405;28;20490;-53
2021/12/13 07:21:02;;;;;;;15.52;10.02;;;;;;;;;;5065690;28;20114;-53
2021/12/13 07:23:29;;;;;;;15.23;9.75;;;;;;;;;;5064042;28;20025;-52
2021/12/13 07:25:56;;;;;;;16.42;9.93;;;;;;;;;;5066231;28;20017;-51
2021/12/13 07:28:30;;;;;;;13.63;9.35;;;;;;;;;;5065951;28;20601;-51
2021/12/13 07:30:57;;;;;;;16.30;10.70;;;;;;;;;;5066113;28;20043;-52
2021/12/13 07:33:33;;;;;;;14.65;9.80;;;;;;;;;;5064302;28;20025;-51
2021/12/13 07:35:59;;;;;;;15.75;9.90;;;;;;;;;;5064648;28;20047;-52
2021/12/13 07:38:26;;;;;;;13.90;9.60;;;;;;;;;;5064174;28;20518;-53
2021/12/13 07:40:54;;;;;;;14.55;9.85;;;;;;;;;;5062927;28;20024;-52
2021/12/13 07:43:28;;;;;;;14.73;9.75;;;;;;;;;;5068715;28;20016;-50
2021/12/13 07:46:06;;;;;;;14.70;9.85;;;;;;;;;;5064324;28;20037;-50
2021/12/13 07:48:34;;;;;;;17.30;10.80;;;;;;;;;;5065604;28;20016;-51
2021/12/13 07:51:04;;;;;;;18.58;11.35;;;;;;;;;;5062657;28;20488;-49
2021/12/13 07:53:37;;;;;;;16.73;11.27;;;;;;;;;;5052782;28;20054;-50
2021/12/13 07:56:03;;;;;;;17.50;11.60;;;;;;;;;;5065610;28;20475;-52
2021/12/13 07:58:38;;;;;;;17.67;11.07;;;;;;;;;;5061950;28;20029;-50
2021/12/13 08:01:09;;;;;;;16.42;10.82;;;;;;;;;;5061078;28;20040;-53
2021/12/13 08:03:42;;;;;;;13.40;9.30;;;;;;;;;;5067032;28;20033;-52
2021/12/13 08:06:09;;;;;;;15.88;10.13;;;;;;;;;;5069351;28;20032;-51
2021/12/13 08:08:44;;;;;;;14.95;9.27;;;;;;;;;;5069608;28;20514;-54
2021/12/13 08:11:11;;;;;;;15.75;10.55;;;;;;;;;;5066495;28;20105;-52
2021/12/13 08:13:38;;;;;;;17.08;10.18;;;;;;;;;;5069232;28;20047;-52
2021/12/13 08:16:06;;;;;;;16.85;9.75;;;;;;;;;;5067332;28;20474;-52
2021/12/13 08:18:43;;;;;;;16.80;10.55;;;;;;;;;;5067466;28;20898;-53
2021/12/13 08:21:26;;;;;;;16.20;10.75;;;;;;;;;;5067892;28;20113;-53
2021/12/13 08:23:57;;;;;;;16.27;10.55;;;;;;;;;;5067108;28;20021;-52
2021/12/13 08:26:29;;;;;;;18.27;11.27;;;;;;;;;;5067666;28;20398;-54
2021/12/13 08:28:57;;;;;;;19.15;12.00;;;;;;;;;;5068986;28;20416;-53
2021/12/13 08:31:26;;;;;;;19.77;12.02;;;;;;;;;;5067580;28;20040;-53
2021/12/13 08:33:55;;;;;;;18.67;11.32;;;;;;;;;;5068912;28;20526;-52
2021/12/13 08:36:24;;;;;;;18.85;11.30;;;;;;;;;;5065833;28;20514;-50
2021/12/13 08:38:59;;;;;;;18.52;11.60;;;;;;;;;;5065967;28;20103;-53
2021/12/13 08:41:39;;;;;;;18.90;10.93;;;;;;;;;;5066865;28;20028;-52
2021/12/13 08:44:05;;;;;;;17.08;10.77;;;;;;;;;;5065940;28;20406;-52
2021/12/13 08:46:34;;;;;;;16.10;10.52;;;;;;;;;;5066210;28;20454;-53
2021/12/13 08:49:00;;;;;;;16.08;10.27;;;;;;;;;;5080194;28;20388;-52
2021/12/13 08:51:28;;;;;;;16.60;11.18;;;;;;;;;;5068659;28;20086;-53
2021/12/13 08:54:12;;;;;;;17.25;11.38;;;;;;;;;;5069507;28;20039;-54
2021/12/13 08:56:44;;;;;;;16.63;11.05;;;;;;;;;;5070035;28;20027;-53
2021/12/13 08:59:20;;;;;;;18.20;11.38;;;;;;;;;;5067816;28;20561;-51
2021/12/13 09:01:49;;;;;;;17.65;11.48;;;;;;;;;;5068947;28;20082;-52
2021/12/13 09:04:42;;;;;;;18.08;11.60;;;;;;;;;;5070021;28;20027;-52
2021/12/13 09:07:09;;;;;;;16.60;11.27;;;;;;;;;;5086951;28;20105;-51
2021/12/13 09:09:42;;;;;;;20.33;12.27;;;;;;;;;;5089921;28;20035;-53
2021/12/13 09:12:09;;;;;;;16.42;10.85;;;;;;;;;;5073116;28;20399;-53
2021/12/13 09:14:42;;;;;;;16.42;11.65;;;;;;;;;;5068936;28;20475;-52
2021/12/13 09:17:21;;;;;;;19.02;11.57;;;;;;;;;;5068095;28;20774;-51
2021/12/13 09:19:47;;;;;;;15.38;11.10;;;;;;;;;;5054078;28;20032;-52
2021/12/13 09:22:18;;;;;;;16.17;10.68;;;;;;;;;;5068940;28;20094;-53
2021/12/13 09:24:50;;;;;;;17.27;10.85;;;;;;;;;;5070313;28;20031;-53
2021/12/13 09:27:25;;;;;;;19.08;11.65;;;;;;;;;;5069734;28;20028;-52
2021/12/13 09:30:04;;;;;;;17.75;11.73;;;;;;;;;;5068243;28;20026;-50
2021/12/13 09:32:33;;;;;;;17.67;11.55;;;;;;;;;;5069076;28;20086;-52
2021/12/13 09:35:19;;;;;;;15.40;10.93;;;;;;;;;;5068064;28;20032;-52
2021/12/13 09:37:45;;;;;;;15.05;10.13;;;;;;;;;;5068537;28;20033;-50
2021/12/13 09:40:12;;;;;;;14.60;9.25;;;;;;;;;;5067241;28;20040;-52
2021/12/13 09:42:50;;;;;;;15.45;9.60;;;;;;;;;;5069069;28;20721;-54
2021/12/13 09:45:22;;;;;;;12.18;8.63;;;;;;;;;;5067737;28;20131;-53
2021/12/13 09:47:49;;;;;;;13.05;8.68;;;;;;;;;;5077802;28;20082;-53
2021/12/13 09:50:18;;;;;;;14.00;9.20;;;;;;;;;;5071370;28;20025;-52
2021/12/13 09:52:50;;;;;;;12.80;8.63;;;;;;;;;;5068291;28;20168;-52
2021/12/13 09:55:25;;;;;;;16.02;9.13;;;;;;;;;;5068769;28;20024;-54
2021/12/13 09:58:04;;;;;;;12.50;8.57;;;;;;;;;;5066612;28;20047;-53
2021/12/13 10:00:45;;;;;;;14.93;9.52;;;;;;;;;;5064581;28;20079;-54
2021/12/13 10:03:17;;;;;;;13.98;9.13;;;;;;;;;;5066340;28;20068;-53
2021/12/13 10:05:44;;;;;;;13.98;9.35;;;;;;;;;;5067990;28;20027;-52
2021/12/13 10:08:15;;;;;;;15.05;9.55;;;;;;;;;;5068273;28;20058;-52
2021/12/13 10:10:44;;;;;;;16.80;10.93;;;;;;;;;;5067109;28;20040;-53
2021/12/13 10:13:14;;;;;;;13.98;9.55;;;;;;;;;;5069770;28;20051;-54
2021/12/13 10:15:42;;;;;;;14.57;9.95;;;;;;;;;;5087883;28;20043;-53
2021/12/13 10:18:12;;;;;;;14.73;10.07;;;;;;;;;;5071603;28;20036;-54
2021/12/13 10:20:50;;;;;;;15.02;9.65;;;;;;;;;;5067008;28;20028;-53
2021/12/13 10:23:18;;;;;;;15.23;10.32;;;;;;;;;;5060417;28;20036;-54
2021/12/13 10:25:45;;;;;;;13.50;9.90;;;;;;;;;;5068471;28;20024;-53
2021/12/13 10:28:15;;;;;;;14.88;10.18;;;;;;;;;;5066520;28;20036;-54
2021/12/13 10:30:44;;;;;;;14.05;9.82;;;;;;;;;;5067844;28;20020;-58
2021/12/13 10:33:10;;;;;;;12.95;9.50;;;;;;;;;;5066942;28;20407;-53
2021/12/13 10:35:38;;;;;;;13.30;9.30;;;;;;;;;;5067803;28;20036;-53
2021/12/13 10:38:07;;;;;;;12.70;9.40;;;;;;;;;;5067213;28;20032;-52
2021/12/13 10:40:36;;;;;;;13.20;9.60;;;;;;;;;;5062903;28;20023;-54
2021/12/13 10:43:05;;;;;;;13.10;9.02;;;;;;;;;;5065076;28;20050;-53
2021/12/13 10:45:39;;;;;;;12.98;8.82;;;;;;;;;;5064155;28;20488;-53
2021/12/13 10:48:07;;;;;;;13.50;9.35;;;;;;;;;;5067182;28;20514;-54
2021/12/13 10:50:36;;;;;;;15.20;9.57;;;;;;;;;;5064040;28;21455;-54
2021/12/13 10:53:03;;;;;;;17.42;10.75;;;;;;;;;;5070896;28;20411;-53
2021/12/13 10:55:35;;;;;;;16.95;10.52;;;;;;;;;;5067209;28;20265;-54
2021/12/13 10:58:03;;;;;;;15.75;10.20;;;;;;;;;;5066922;28;20028;-55
2021/12/13 11:00:34;;;;;;;17.05;10.18;;;;;;;;;;5067092;28;20033;-54
2021/12/13 11:03:15;;;;;;;14.57;9.80;;;;;;;;;;5059228;28;20024;-54
2021/12/13 11:05:41;;;;;;;15.02;9.98;;;;;;;;;;5049726;28;20037;-53
2021/12/13 11:08:09;;;;;;;12.95;9.40;;;;;;;;;;5060236;28;20080;-54
2021/12/13 11:11:01;;;;;;;13.85;9.70;;;;;;;;;;5066232;28;20554;-55
2021/12/13 11:13:29;;;;;;;13.32;9.00;;;;;;;;;;5064004;28;20039;-54
2021/12/13 11:15:57;;;;;;;14.48;9.68;;;;;;;;;;5066107;28;20090;-54
2021/12/13 11:18:28;;;;;;;11.88;8.68;;;;;;;;;;5071723;28;20506;-54
2021/12/13 11:20:56;;;;;;;13.05;9.00;;;;;;;;;;5087260;28;20104;-54
2021/12/13 11:23:23;;;;;;;14.63;9.65;;;;;;;;;;5054864;28;20051;-54
2021/12/13 11:25:51;;;;;;;13.85;9.00;;;;;;;;;;5065277;28;20024;-55
2021/12/13 11:28:18;;;;;;;12.20;8.77;;;;;;;;;;5066877;28;20031;-52
2021/12/13 11:30:45;;;;;;;12.40;8.75;;;;;;;;;;5066898;28;20031;-55
2021/12/13 11:33:22;;;;;;;12.32;8.68;;;;;;;;;;5063072;28;20083;-55
2021/12/13 11:36:07;;;;;;;9.68;7.68;;;;;;;;;;5070749;28;20514;-55
2021/12/13 11:39:00;;;;;;;10.60;7.63;;;;;;;;;;5057231;28;20036;-55
2021/12/13 11:41:46;;;;;;;10.25;7.32;;;;;;;;;;5063453;28;20036;-55
2021/12/13 11:44:24;;;;;;;9.10;6.53;;;;;;;;;;5068271;28;20030;-54
2021/12/13 11:47:08;;;;;;;7.60;6.03;;;;;;;;;;5068963;28;20032;-56
2021/12/13 11:49:47;;;;;;;8.13;5.95;;;;;;;;;;5066462;28;20028;-54
2021/12/13 11:52:43;;;;;;;6.82;5.07;;;;;;;;;;5066671;28;20078;-54
2021/12/13 11:55:28;;;;;;;6.22;4.57;;;;;;;;;;5047102;28;20032;-54
2021/12/13 11:58:12;;;;;;;6.60;4.40;;;;;;;;;;5066385;28;20052;-54
2021/12/13 12:00:58;;;;;;;5.65;4.28;;;;;;;;;;5062523;28;20493;-55
2021/12/13 12:03:44;;;;;;;5.35;4.00;;;;;;;;;;5064392;28;20151;-54
2021/12/13 12:06:29;;;;;;;5.30;3.80;;;;;;;;;;5064452;28;20028;-55
2021/12/13 12:09:34;;;;;;;4.55;3.38;;;;;;;;;;5064982;28;20116;-54
2021/12/13 12:12:19;;;;;;;4.82;3.72;;;;;;;;;;4944039;29;20078;-55
2021/12/13 12:14:49;;;;;;;4.55;3.47;;;;;;;;;;4945137;29;20036;-54
2021/12/13 12:17:17;;;;;;;5.00;3.40;;;;;;;;;;5019168;28;20056;-55
2021/12/13 12:19:45;;;;;;;4.55;3.35;;;;;;;;;;5064153;28;20085;-55
2021/12/13 12:22:15;;;;;;;4.28;3.20;;;;;;;;;;5060942;28;20037;-55
2021/12/13 12:24:46;;;;;;;5.07;3.88;;;;;;;;;;5065145;28;20029;-55
2021/12/13 12:27:16;;;;;;;4.80;3.85;;;;;;;;;;5064692;28;20027;-54
2021/12/13 12:29:44;;;;;;;5.20;4.03;;;;;;;;;;5064039;28;20025;-52
2021/12/13 12:32:19;;;;;;;5.03;3.97;;;;;;;;;;5063793;28;20144;-55
2021/12/13 12:34:57;;;;;;;6.22;4.15;;;;;;;;;;5065432;28;20028;-55
2021/12/13 12:37:26;;;;;;;5.57;4.38;;;;;;;;;;5064563;28;20036;-55
2021/12/13 12:40:07;;;;;;;6.75;4.70;;;;;;;;;;5064780;28;20279;-55
2021/12/13 12:42:33;;;;;;;5.63;4.22;;;;;;;;;;5063352;28;20062;-54
2021/12/13 12:45:02;;;;;;;5.35;4.20;;;;;;;;;;5067097;28;20134;-54
2021/12/13 12:47:34;;;;;;;5.88;4.53;;;;;;;;;;5049841;28;20040;-53
2021/12/13 12:50:30;;;;;;;6.13;4.53;;;;;;;;;;5051908;28;20025;-54
2021/12/13 12:52:57;;;;;;;7.30;4.95;;;;;;;;;;5015000;28;20100;-54
2021/12/13 12:55:25;;;;;;;6.47;4.40;;;;;;;;;;5066481;28;20028;-52
2021/12/13 12:57:52;;;;;;;8.15;5.28;;;;;;;;;;5067837;28;20540;-54
2021/12/13 13:00:22;;;;;;;7.53;5.07;;;;;;;;;;5081939;28;20028;-53
2021/12/13 13:02:50;;;;;;;7.57;5.43;;;;;;;;;;5087259;28;20071;-53
2021/12/13 13:05:18;;;;;;;8.20;5.47;;;;;;;;;;5070558;28;20024;-54
2021/12/13 13:07:45;;;;;;;7.32;5.07;;;;;;;;;;5069611;28;20024;-53
2021/12/13 13:12:48;;;;;;;8.32;5.57;;;;;;;;;;5069948;28;20082;-53
2021/12/13 13:15:17;;;;;;;8.25;5.57;;;;;;;;;;5067765;28;20115;-53
2021/12/13 13:17:51;;;;;;;6.82;5.20;;;;;;;;;;5070974;28;20874;-53
2021/12/13 13:20:26;;;;;;;7.70;5.43;;;;;;;;;;5068272;28;20077;-52
2021/12/13 13:22:53;;;;;;;7.35;5.63;;;;;;;;;;5067943;28;20109;-52
2021/12/13 13:25:28;;;;;;;7.45;5.43;;;;;;;;;;5066976;28;20040;-52
2021/12/13 13:27:54;;;;;;;;;;;;;;;;;;5068487;28;20054;-53
2021/12/13 13:30:29;;;;;;;8.73;6.25;;;;;;;;;;5069055;28;19940;-53
2021/12/13 13:32:55;;;;;;;9.15;6.63;;;;;;;;;;5067919;28;20681;-53
2021/12/13 13:35:22;;;;;;;8.73;6.40;;;;;;;;;;5068955;28;20032;-53
2021/12/13 13:37:49;;;;;;;10.20;7.22;;;;;;;;;;5069456;28;20090;-54
2021/12/13 13:40:19;;;;;;;9.65;6.63;;;;;;;;;;5067519;28;20041;-54
2021/12/13 13:42:50;;;;;;;11.30;7.30;;;;;;;;;;5053097;28;20028;-53
2021/12/13 13:45:19;;;;;;;9.98;7.43;;;;;;;;;;5068650;28;20028;-54
2021/12/13 13:47:47;;;;;;;9.32;6.88;;;;;;;;;;5068903;28;20025;-54
2021/12/13 13:50:16;;;;;;;10.57;7.18;;;;;;;;;;5068221;28;20028;-54
2021/12/13 13:52:44;;;;;;;10.50;7.15;;;;;;;;;;5067805;28;20032;-54
2021/12/13 13:55:28;;;;;;;11.90;8.15;;;;;;;;;;5067569;28;20120;-53
2021/12/13 13:57:54;;;;;;;;;;;;;;;;;;5068828;28;20107;-52
2021/12/13 14:00:21;;;;;;;9.02;6.55;;;;;;;;;;5067998;28;19916;-54
2021/12/13 14:02:48;;;;;;;9.93;7.07;;;;;;;;;;5069137;28;20020;-53
2021/12/13 14:05:15;;;;;;;11.88;8.30;;;;;;;;;;5065856;28;20024;-53
2021/12/13 14:07:42;;;;;;;11.38;7.70;;;;;;;;;;5050581;28;20063;-54
2021/12/13 14:10:12;;;;;;;9.55;7.53;;;;;;;;;;5050585;28;20016;-53
2021/12/13 14:12:42;;;;;;;10.23;7.65;;;;;;;;;;5068128;28;20024;-53
2021/12/13 14:15:11;;;;;;;12.02;8.02;;;;;;;;;;5067852;28;20025;-52
2021/12/13 14:17:42;;;;;;;12.10;7.95;;;;;;;;;;5068087;28;20086;-53
2021/12/13 14:20:14;;;;;;;11.38;7.35;;;;;;;;;;5067699;28;20032;-54
2021/12/13 14:22:40;;;;;;;9.88;7.32;;;;;;;;;;5076911;28;20491;-52
2021/12/13 14:25:07;;;;;;;10.13;7.40;;;;;;;;;;5066258;28;20020;-52
2021/12/13 14:27:33;;;;;;;9.98;7.35;;;;;;;;;;5045646;28;20511;-52
2021/12/13 14:30:20;;;;;;;8.70;6.93;;;;;;;;;;5066858;28;20021;-52
2021/12/13 14:32:47;;;;;;;9.13;7.10;;;;;;;;;;5066165;28;20028;-52
2021/12/13 14:35:14;;;;;;;8.98;6.82;;;;;;;;;;5065396;28;20028;-51
2021/12/13 14:37:42;;;;;;;7.53;5.65;;;;;;;;;;5070523;28;20030;-53
2021/12/13 14:40:09;;;;;;;6.20;5.00;;;;;;;;;;5063115;28;20407;-53
2021/12/13 14:42:35;;;;;;;6.68;5.13;;;;;;;;;;5064133;28;20025;-53
2021/12/13 14:45:04;;;;;;;6.00;4.78;;;;;;;;;;5066969;28;20037;-54
2021/12/13 14:47:46;;;;;;;5.65;4.60;;;;;;;;;;5067110;28;20024;-54
2021/12/13 14:50:15;;;;;;;5.68;4.50;;;;;;;;;;5065862;28;20037;-55
2021/12/13 14:52:49;;;;;;;6.18;4.13;;;;;;;;;;5060174;28;20866;-54
2021/12/13 14:55:18;;;;;;;5.63;4.45;;;;;;;;;;5067210;28;20042;-54
2021/12/13 14:57:50;;;;;;;6.10;4.25;;;;;;;;;;5067874;28;20032;-53
2021/12/13 15:00:22;;;;;;;6.03;4.18;;;;;;;;;;5068089;28;20041;-53
2021/12/13 15:02:53;;;;;;;5.38;4.38;;;;;;;;;;5068215;28;20505;-52